createdAt,value
2018-03-14T08:38:49.047Z,91380.00
2018-03-14T08:39:38.120Z,91381.46
2018-03-14T08:40:27.172Z,91378.89
2018-03-14T08:41:16.233Z,91379.84
2018-03-14T08:42:05.287Z,91382.18
2018-03-14T08:42:54.330Z,91371.57
2018-03-14T08:43:43.371Z,91374.66
2018-03-14T08:44:32.455Z,91374.05
2018-03-14T08:45:21.541Z,91372.17
2018-03-14T08:46:10.660Z,91372.98
2018-03-14T08:46:59.721Z,91371.45
2018-03-14T08:47:48.758Z,91376.91
2018-03-14T08:48:38.119Z,91375.22
2018-03-14T08:49:27.197Z,91371.05
2018-03-14T08:50:16.335Z,91372.80
2018-03-14T08:51:05.404Z,91376.02
2018-03-14T08:51:54.442Z,91372.27
2018-03-14T08:52:43.476Z,91367.81
2018-03-14T08:53:32.529Z,91373.80
2018-03-14T08:54:21.595Z,91374.75
2018-03-14T08:55:10.698Z,91362.66
2018-03-14T08:55:59.818Z,91366.42
2018-03-14T08:56:48.854Z,91365.26
2018-03-14T08:57:37.892Z,91366.35
2018-03-14T08:58:27.222Z,91364.55
2018-03-14T08:59:16.262Z,91361.64
2018-03-14T09:00:05.317Z,91360.08
2018-03-14T09:00:54.366Z,91369.12
2018-03-14T09:01:43.406Z,91358.98
2018-03-14T09:02:32.451Z,91354.27
2018-03-14T09:03:21.496Z,91349.71
2018-03-14T09:04:10.602Z,91358.75
2018-03-14T09:04:59.655Z,91351.28
2018-03-14T09:05:48.697Z,91348.58
2018-03-14T09:06:37.748Z,91348.80
2018-03-14T09:07:26.845Z,91353.17
2018-03-14T09:08:15.893Z,91368.27
2018-03-14T09:09:05.048Z,91345.37
2018-03-14T09:09:54.109Z,91353.95
2018-03-14T09:10:43.155Z,91351.19
2018-03-14T09:11:32.204Z,91342.20
2018-03-14T09:12:21.239Z,91344.38
2018-03-14T09:13:10.269Z,91350.12
2018-03-14T09:13:59.414Z,91349.65
2018-03-14T09:14:48.456Z,91347.92
2018-03-14T09:15:37.636Z,91344.17
2018-03-14T09:16:26.674Z,91343.88
2018-03-14T09:17:15.709Z,91341.34
2018-03-14T09:18:05.081Z,91348.88
2018-03-14T09:18:54.148Z,91341.75
2018-03-14T09:19:43.188Z,91346.91
2018-03-14T09:20:32.224Z,91339.94
2018-03-14T09:21:21.271Z,91339.95
2018-03-14T09:22:10.491Z,91333.66
2018-03-14T09:22:59.532Z,91339.65
2018-03-14T09:23:48.631Z,91332.72
2018-03-14T09:24:37.685Z,91339.78
2018-03-14T09:25:26.719Z,91336.34
2018-03-14T09:26:15.775Z,91337.80
2018-03-14T09:27:04.811Z,91349.53
2018-03-14T09:27:53.881Z,91343.16
2018-03-14T09:28:42.901Z,91348.25
2018-03-14T09:29:31.923Z,91345.27
2018-03-14T09:30:20.957Z,91350.06
2018-03-14T09:31:10.160Z,91338.19
2018-03-14T09:31:59.190Z,91339.30
2018-03-14T09:32:48.223Z,91338.14
2018-03-14T09:33:37.329Z,91338.67
2018-03-14T09:34:26.427Z,91340.08
2018-03-14T09:35:15.483Z,91337.73
2018-03-14T09:36:04.531Z,91336.17
2018-03-14T09:36:53.584Z,91338.05
2018-03-14T09:37:42.627Z,91343.80
2018-03-14T09:38:31.718Z,91337.83
2018-03-14T09:39:20.778Z,91339.11
2018-03-14T09:40:09.824Z,91329.45
2018-03-14T09:40:58.963Z,91334.92
2018-03-14T09:41:48.007Z,91331.33
2018-03-14T09:42:37.041Z,91344.20
2018-03-14T09:43:26.079Z,91340.94
2018-03-14T09:44:15.116Z,91342.67
2018-03-14T09:45:04.189Z,91334.87
2018-03-14T09:45:53.227Z,91341.83
2018-03-14T09:46:42.320Z,91336.75
2018-03-14T09:47:31.424Z,91334.38
2018-03-14T09:48:20.460Z,91334.52
2018-03-14T09:49:09.495Z,91337.09
2018-03-14T09:49:58.530Z,91338.33
2018-03-14T09:50:47.571Z,91332.30
2018-03-14T09:51:36.608Z,91328.45
2018-03-14T09:52:25.657Z,91332.66
2018-03-14T09:53:14.728Z,91330.25
2018-03-14T09:54:03.772Z,91332.09
2018-03-14T09:54:52.806Z,91335.09
2018-03-14T09:55:41.841Z,91338.11
2018-03-14T09:56:30.891Z,91332.41
2018-03-14T09:57:19.950Z,91337.36
2018-03-14T09:58:08.988Z,91324.98
2018-03-14T09:58:58.128Z,91331.18
2018-03-14T09:59:47.164Z,91340.17
2018-03-14T10:00:36.200Z,91330.73
2018-03-14T10:01:25.246Z,91332.32
2018-03-14T10:02:14.373Z,91335.39
2018-03-14T10:03:03.439Z,91332.91
2018-03-14T10:03:52.494Z,91328.07
2018-03-14T10:04:41.553Z,91327.89
2018-03-14T10:05:30.584Z,91321.98
2018-03-14T10:06:19.626Z,91331.85
2018-03-14T10:07:08.664Z,91327.89
2018-03-14T10:07:57.853Z,91324.12
2018-03-14T10:08:46.890Z,91320.59
2018-03-14T10:09:35.989Z,91319.65
2018-03-14T10:10:25.027Z,91312.05
2018-03-14T10:11:14.079Z,91311.29
2018-03-14T10:12:03.130Z,91312.25
2018-03-14T10:12:52.192Z,91314.90
2018-03-14T10:13:41.228Z,91315.74
2018-03-14T10:14:30.267Z,91312.11
2018-03-14T10:15:19.413Z,91320.97
2018-03-14T10:16:08.493Z,91304.75
2018-03-14T10:16:57.538Z,91322.59
2018-03-14T10:17:46.577Z,91317.27
2018-03-14T10:18:35.630Z,91325.14
2018-03-14T10:19:24.775Z,91312.99
2018-03-14T10:20:13.821Z,91310.52
2018-03-14T10:21:02.875Z,91319.43
2018-03-14T10:21:51.928Z,91314.44
2018-03-14T10:22:41.006Z,91307.06
2018-03-14T10:23:30.062Z,91315.92
2018-03-14T10:24:19.106Z,91303.27
2018-03-14T10:25:08.177Z,91307.19
2018-03-14T10:25:57.246Z,91306.28
2018-03-14T10:26:46.294Z,91310.92
2018-03-14T10:27:35.343Z,91305.37
2018-03-14T10:28:24.378Z,91299.53
2018-03-14T10:29:13.759Z,91297.73
2018-03-14T10:30:02.802Z,91292.58
2018-03-14T10:30:51.870Z,91303.28
2018-03-14T10:31:40.905Z,91300.05
2018-03-14T10:32:29.950Z,91300.53
2018-03-14T10:33:18.996Z,91298.80
2018-03-14T10:34:08.115Z,91293.13
2018-03-14T10:34:57.153Z,91295.30
2018-03-14T10:35:46.182Z,91297.86
2018-03-14T10:36:35.327Z,91299.36
2018-03-14T10:37:24.364Z,91290.25
2018-03-14T10:38:13.420Z,91297.20
2018-03-14T10:39:02.481Z,91293.48
2018-03-14T10:39:51.541Z,91300.85
2018-03-14T10:40:40.584Z,91292.62
2018-03-14T10:41:29.609Z,91292.85
2018-03-14T10:42:18.896Z,91291.63
2018-03-14T10:43:07.932Z,91297.05
2018-03-14T10:43:56.981Z,91293.53
2018-03-14T10:44:46.041Z,91294.45
2018-03-14T10:45:35.077Z,91291.58
2018-03-14T10:46:24.112Z,91293.30
2018-03-14T10:47:13.156Z,91291.08
2018-03-14T10:48:02.230Z,91295.00
2018-03-14T10:48:51.277Z,91287.48
2018-03-14T10:49:40.303Z,91288.68
2018-03-14T10:50:29.378Z,91280.57
2018-03-14T10:51:18.414Z,91290.50
2018-03-14T10:52:07.447Z,91284.45
2018-03-14T10:52:56.488Z,91290.23
2018-03-14T10:53:45.640Z,91283.76
2018-03-14T10:54:34.678Z,91282.55
2018-03-14T10:55:23.725Z,91284.41
2018-03-14T10:56:12.773Z,91280.08
2018-03-14T10:57:01.810Z,91279.63
2018-03-14T10:57:50.989Z,91285.75
2018-03-14T10:58:40.033Z,91285.24
2018-03-14T10:59:29.076Z,91287.84
2018-03-14T11:00:23.517Z,91285.72
2018-03-14T11:01:12.593Z,91282.40
2018-03-14T11:02:07.004Z,91282.03
2018-03-14T11:03:01.474Z,91278.39
2018-03-14T11:03:50.528Z,91277.59
2018-03-14T11:04:39.586Z,91277.04
2018-03-14T11:05:28.634Z,91270.62
2018-03-14T11:06:17.685Z,91269.48
2018-03-14T11:07:06.725Z,91266.75
2018-03-14T11:07:58.360Z,91272.19
2018-03-14T11:08:47.412Z,91269.21
2018-03-14T11:09:36.574Z,91277.50
2018-03-14T11:10:25.776Z,91276.40
2018-03-14T11:11:14.817Z,91275.88
2018-03-14T11:12:03.889Z,91267.64
2018-03-14T11:12:53.199Z,91271.50
2018-03-14T11:13:42.262Z,91270.08
2018-03-14T11:14:31.322Z,91273.74
2018-03-14T11:15:20.380Z,91260.74
2018-03-14T11:16:09.480Z,91265.30
2018-03-14T11:16:58.515Z,91273.17
2018-03-14T11:17:47.572Z,91256.16
2018-03-14T11:18:36.619Z,91267.16
2018-03-14T11:19:25.678Z,91262.78
2018-03-14T11:20:14.822Z,91260.47
2018-03-14T11:21:03.882Z,91266.63
2018-03-14T11:21:52.934Z,91262.08
2018-03-14T11:22:41.984Z,91259.13
2018-03-14T11:23:31.036Z,91252.05
2018-03-14T11:24:20.070Z,91256.52
2018-03-14T11:25:09.171Z,91259.70
2018-03-14T11:25:58.329Z,91263.29
2018-03-14T11:26:47.366Z,91248.22
2018-03-14T11:27:36.428Z,91252.05
2018-03-14T11:28:25.474Z,91248.88
2018-03-14T11:29:14.521Z,91260.38
2018-03-14T11:30:03.819Z,91248.46
2018-03-14T11:30:52.863Z,91247.19
2018-03-14T11:31:41.911Z,91246.27
2018-03-14T11:32:31.166Z,91246.83
2018-03-14T11:33:20.202Z,91253.41
2018-03-14T11:34:09.247Z,91254.12
2018-03-14T11:34:58.301Z,91246.88
2018-03-14T11:35:47.525Z,91255.09
2018-03-14T11:36:36.568Z,91248.70
2018-03-14T11:37:25.614Z,91250.89
2018-03-14T11:38:14.673Z,91253.38
2018-03-14T11:39:03.770Z,91267.88
2018-03-14T11:39:52.816Z,91238.06
2018-03-14T11:40:41.859Z,91250.11
2018-03-14T11:41:30.977Z,91261.11
2018-03-14T11:42:20.068Z,91272.13
2018-03-14T11:43:09.108Z,91257.78
2018-03-14T11:43:58.180Z,91256.68
2018-03-14T11:44:47.220Z,91255.12
2018-03-14T11:45:36.269Z,91255.73
2018-03-14T11:46:25.325Z,91260.48
2018-03-14T11:47:14.838Z,91258.98
2018-03-14T11:48:03.921Z,91261.17
2018-03-14T11:48:52.982Z,91268.22
2018-03-14T11:49:42.062Z,91256.88
2018-03-14T11:50:31.098Z,91257.76
2018-03-14T11:51:20.145Z,91264.64
2018-03-14T11:52:09.209Z,91264.78
2018-03-14T11:52:58.256Z,91261.25
2018-03-14T11:53:47.315Z,91258.84
2018-03-14T11:54:36.362Z,91261.86
2018-03-14T11:55:25.453Z,91259.33
2018-03-14T11:56:14.489Z,91261.59
2018-03-14T11:57:03.535Z,91262.09
2018-03-14T11:57:52.600Z,91266.41
2018-03-14T11:58:41.636Z,91269.27
2018-03-14T11:59:30.725Z,91268.47
2018-03-14T12:00:19.797Z,91259.16
2018-03-14T12:01:08.846Z,91262.92
2018-03-14T12:01:57.886Z,91268.02
2018-03-14T12:02:47.024Z,91266.13
2018-03-14T12:03:36.095Z,91268.63
2018-03-14T12:04:25.140Z,91266.63
2018-03-14T12:05:14.187Z,91269.08
2018-03-14T12:06:03.240Z,91264.37
2018-03-14T12:06:52.287Z,91260.20
2018-03-14T12:07:41.331Z,91272.66
2018-03-14T12:08:30.663Z,91268.98
2018-03-14T12:09:19.724Z,91276.94
2018-03-14T12:10:08.791Z,91270.28
2018-03-14T12:10:57.989Z,91272.88
2018-03-14T12:11:47.035Z,91269.12
2018-03-14T12:12:36.067Z,91268.75
2018-03-14T12:13:25.121Z,91278.25
2018-03-14T12:14:14.192Z,91275.42
2018-03-14T12:15:03.231Z,91277.41
2018-03-14T12:15:52.274Z,91276.84
2018-03-14T12:16:41.356Z,91280.65
2018-03-14T12:17:30.403Z,91276.41
2018-03-14T12:18:19.466Z,91274.21
2018-03-14T12:19:08.521Z,91267.40
2018-03-14T12:19:57.565Z,91268.64
2018-03-14T12:20:46.604Z,91278.02
2018-03-14T12:21:35.652Z,91280.42
2018-03-14T12:22:30.334Z,91271.73
2018-03-14T12:23:19.399Z,91270.00
2018-03-14T12:24:08.488Z,91261.52
2018-03-14T12:24:57.535Z,91263.42
2018-03-14T12:25:46.580Z,91265.24
2018-03-14T12:26:35.738Z,91261.16
2018-03-14T12:27:24.828Z,91273.69
2018-03-14T12:28:13.876Z,91265.75
2018-03-14T12:29:02.932Z,91268.15
2018-03-14T12:29:51.985Z,91260.45
2018-03-14T12:30:41.025Z,91263.95
2018-03-14T12:31:30.075Z,91256.53
2018-03-14T12:32:19.175Z,91260.66
2018-03-14T12:33:08.237Z,91258.53
2018-03-14T12:33:57.297Z,91256.63
2018-03-14T12:34:46.360Z,91263.10
2018-03-14T12:35:35.409Z,91262.50
2018-03-14T12:36:24.457Z,91258.80
2018-03-14T12:37:13.498Z,91258.02
2018-03-14T12:38:02.660Z,91259.73
2018-03-14T12:38:51.703Z,91257.91
2018-03-14T12:39:40.736Z,91253.22
2018-03-14T12:40:29.849Z,91252.68
2018-03-14T12:41:18.889Z,91252.53
2018-03-14T12:42:07.990Z,91249.97
2018-03-14T12:42:57.053Z,91250.41
2018-03-14T12:43:46.128Z,91252.17
2018-03-14T12:44:35.161Z,91256.83
2018-03-14T12:45:24.203Z,91250.91
2018-03-14T12:46:13.289Z,91251.87
2018-03-14T12:47:02.328Z,91246.38
2018-03-14T12:47:51.438Z,91247.21
2018-03-14T12:48:40.471Z,91251.14
2018-03-14T12:49:29.508Z,91252.66
2018-03-14T12:50:18.554Z,91252.86
2018-03-14T12:51:07.595Z,91253.58
2018-03-14T12:51:56.636Z,91250.02
2018-03-14T12:52:45.672Z,91259.80
2018-03-14T12:53:34.821Z,91246.20
2018-03-14T12:54:23.865Z,91249.16
2018-03-14T12:55:12.910Z,91265.73
2018-03-14T12:56:01.951Z,91252.77
2018-03-14T12:56:50.988Z,91259.37
2018-03-14T12:57:40.031Z,91254.61
2018-03-14T12:58:29.073Z,91244.84
2018-03-14T12:59:18.220Z,91251.91
2018-03-14T13:00:07.308Z,91253.06
2018-03-14T13:00:56.348Z,91247.93
2018-03-14T13:01:45.383Z,91250.34
2018-03-14T13:02:34.427Z,91255.14
2018-03-14T13:03:23.548Z,91263.55
2018-03-14T13:04:12.608Z,91260.66
2018-03-14T13:05:01.643Z,91260.45
2018-03-14T13:05:50.682Z,91262.53
2018-03-14T13:06:39.763Z,91260.84
2018-03-14T13:07:28.808Z,91260.00
2018-03-14T13:08:17.854Z,91271.53
2018-03-14T13:09:06.983Z,91262.23
2018-03-14T13:09:56.264Z,91264.10
2018-03-14T13:10:45.291Z,91268.25
2018-03-14T13:11:34.348Z,91264.78
2018-03-14T13:12:27.028Z,91255.91
2018-03-14T13:13:16.073Z,91271.24
2018-03-14T13:14:05.117Z,91262.40
2018-03-14T13:14:54.288Z,91258.83
2018-03-14T13:15:43.328Z,91258.86
2018-03-14T13:16:32.366Z,91256.78
2018-03-14T13:17:21.403Z,91264.30
2018-03-14T13:18:10.486Z,91261.78
2018-03-14T13:18:59.502Z,91255.94
2018-03-14T13:19:48.540Z,91260.23
2018-03-14T13:20:37.629Z,91258.77
2018-03-14T13:21:26.690Z,91257.34
2018-03-14T13:22:15.762Z,91264.88
2018-03-14T13:23:04.805Z,91265.06
2018-03-14T13:23:53.852Z,91264.82
2018-03-14T13:24:42.898Z,91258.25
2018-03-14T13:25:31.963Z,91258.48
2018-03-14T13:26:21.086Z,91259.60
2018-03-14T13:27:10.139Z,91256.77
2018-03-14T13:27:59.175Z,91262.88
2018-03-14T13:28:48.209Z,91265.47
2018-03-14T13:29:37.261Z,91263.52
2018-03-14T13:30:26.310Z,91257.33
2018-03-14T13:31:15.360Z,91256.46
2018-03-14T13:32:04.534Z,91257.89
2018-03-14T13:32:53.627Z,91249.47
2018-03-14T13:33:42.638Z,91259.66
2018-03-14T13:34:31.688Z,91256.36
2018-03-14T13:35:20.750Z,91260.72
2018-03-14T13:36:09.802Z,91263.95
2018-03-14T13:36:58.931Z,91259.86
2018-03-14T13:37:47.984Z,91266.42
2018-03-14T13:38:37.022Z,91260.18
2018-03-14T13:39:26.083Z,91254.77
2018-03-14T13:40:15.142Z,91264.52
2018-03-14T13:41:04.198Z,91262.51
2018-03-14T13:41:53.260Z,91266.75
2018-03-14T13:42:42.370Z,91269.80
2018-03-14T13:43:31.422Z,91272.88
2018-03-14T13:44:20.541Z,91269.73
2018-03-14T13:45:09.592Z,91267.53
2018-03-14T13:45:58.651Z,91269.44
2018-03-14T13:46:47.696Z,91280.55
2018-03-14T13:47:36.860Z,91273.89
2018-03-14T13:48:25.929Z,91262.77
2018-03-14T13:49:14.988Z,91267.88
2018-03-14T13:50:04.068Z,91266.78
2018-03-14T13:50:53.129Z,91264.88
2018-03-14T13:51:42.215Z,91262.70
2018-03-14T13:52:31.263Z,91261.21
2018-03-14T13:53:20.400Z,91263.75
2018-03-14T13:54:09.480Z,91263.45
2018-03-14T13:54:58.534Z,91258.92
2018-03-14T13:55:47.590Z,91265.84
2018-03-14T13:56:36.776Z,91258.86
2018-03-14T13:57:25.828Z,91258.89
2018-03-14T13:58:14.874Z,91262.60
2018-03-14T13:59:03.934Z,91260.70
2018-03-14T13:59:52.984Z,91254.83
2018-03-14T14:00:42.056Z,91256.50
2018-03-14T14:01:31.112Z,91258.29
2018-03-14T14:02:20.211Z,91261.66
2018-03-14T14:03:09.288Z,91255.34
2018-03-14T14:03:58.343Z,91260.01
2018-03-14T14:04:47.393Z,91261.70
2018-03-14T14:05:36.464Z,91256.38
2018-03-14T14:06:25.533Z,91258.74
2018-03-14T14:07:14.596Z,91258.02
2018-03-14T14:08:03.704Z,91254.07
2018-03-14T14:08:52.752Z,91263.46
2018-03-14T14:09:41.811Z,91258.98
2018-03-14T14:10:30.883Z,91252.06
2018-03-14T14:11:19.935Z,91261.35
2018-03-14T14:12:09.011Z,91262.39
2018-03-14T14:12:58.066Z,91257.78
2018-03-14T14:13:47.640Z,91252.91
2018-03-14T14:14:36.726Z,91256.37
2018-03-14T14:15:25.787Z,91254.02
2018-03-14T14:16:14.857Z,91254.41
2018-03-14T14:17:03.924Z,91254.23
2018-03-14T14:17:52.968Z,91250.70
2018-03-14T14:18:42.023Z,91254.52
2018-03-14T14:19:31.113Z,91247.22
2018-03-14T14:20:20.812Z,91239.92
2018-03-14T14:21:09.864Z,91252.09
2018-03-14T14:21:58.949Z,91245.34
2018-03-14T14:22:48.005Z,91236.58
2018-03-14T14:23:37.071Z,91240.64
2018-03-14T14:24:26.138Z,91243.28
2018-03-14T14:25:15.229Z,91237.29
2018-03-14T14:26:04.331Z,91238.33
2018-03-14T14:26:53.405Z,91237.16
2018-03-14T14:27:42.456Z,91235.58
2018-03-14T14:28:31.511Z,91241.20
2018-03-14T14:29:20.570Z,91243.97
2018-03-14T14:30:09.626Z,91241.71
2018-03-14T14:30:58.804Z,91237.53
2018-03-14T14:31:47.881Z,91238.63
2018-03-14T14:32:36.955Z,91238.52
2018-03-14T14:33:26.041Z,91241.78
2018-03-14T14:34:15.087Z,91234.14
2018-03-14T14:35:04.173Z,91243.75
2018-03-14T14:35:53.233Z,91245.94
2018-03-14T14:36:42.396Z,91242.53
2018-03-14T14:37:31.439Z,91244.71
2018-03-14T14:38:20.524Z,91243.40
2018-03-14T14:39:09.632Z,91240.69
2018-03-14T14:39:58.687Z,91237.67
2018-03-14T14:40:47.749Z,91242.63
2018-03-14T14:41:36.883Z,91240.05
2018-03-14T14:42:26.009Z,91240.41
2018-03-14T14:43:15.058Z,91233.31
2018-03-14T14:44:04.330Z,91245.33
2018-03-14T14:44:53.372Z,91240.61
2018-03-14T14:45:42.429Z,91227.92
2018-03-14T14:46:31.496Z,91235.98
2018-03-14T14:47:20.552Z,91240.34
2018-03-14T14:48:09.595Z,91239.30
2018-03-14T14:48:58.653Z,91240.12
2018-03-14T14:49:47.756Z,91241.59
2018-03-14T14:50:36.971Z,91238.06
2018-03-14T14:51:26.024Z,91241.58
2018-03-14T14:52:15.121Z,91237.48
2018-03-14T14:53:04.217Z,91243.34
2018-03-14T14:53:53.265Z,91242.31
2018-03-14T14:54:42.321Z,91239.09
2018-03-14T14:55:31.476Z,91238.78
2018-03-14T14:56:20.521Z,91235.86
2018-03-14T14:57:10.241Z,91248.83
2018-03-14T14:57:59.296Z,91243.98
2018-03-14T14:58:48.339Z,91243.77
2018-03-14T14:59:37.398Z,91244.76
2018-03-14T15:00:26.479Z,91247.97
2018-03-14T15:01:15.544Z,91240.09
2018-03-14T15:02:04.627Z,91243.11
2018-03-14T15:02:53.716Z,91241.88
2018-03-14T15:03:42.784Z,91242.13
2018-03-14T15:04:31.890Z,91243.30
2018-03-14T15:05:20.976Z,91243.79
2018-03-14T15:06:10.089Z,91238.70
2018-03-14T15:06:59.146Z,91249.35
2018-03-14T15:07:48.193Z,91244.84
2018-03-14T15:08:37.313Z,91236.19
2018-03-14T15:09:26.359Z,91241.73
2018-03-14T15:10:15.411Z,91238.63
2018-03-14T15:11:04.462Z,91242.72
2018-03-14T15:11:53.530Z,91242.31
2018-03-14T15:12:42.710Z,91240.44
2018-03-14T15:13:31.774Z,91241.61
2018-03-14T15:14:20.836Z,91243.55
2018-03-14T15:15:09.905Z,91246.53
2018-03-14T15:15:58.953Z,91244.30
2018-03-14T15:16:48.020Z,91242.20
2018-03-14T15:17:37.207Z,91241.91
2018-03-14T15:18:26.267Z,91241.38
2018-03-14T15:19:15.321Z,91254.25
2018-03-14T15:20:04.409Z,91244.42
2018-03-14T15:20:53.482Z,91248.39
2018-03-14T15:21:42.565Z,91253.20
2018-03-14T15:22:31.607Z,91251.61
2018-03-14T15:23:20.694Z,91255.88
2018-03-14T15:24:09.753Z,91252.38
2018-03-14T15:24:58.830Z,91256.94
2018-03-14T15:25:47.888Z,91256.99
2018-03-14T15:26:36.949Z,91259.22
2018-03-14T15:27:26.007Z,91259.22
2018-03-14T15:28:15.048Z,91258.98
2018-03-14T15:29:04.206Z,91251.95
2018-03-14T15:29:53.308Z,91259.50
2018-03-14T15:30:42.395Z,91257.45
2018-03-14T15:31:31.476Z,91259.98
2018-03-14T15:32:20.807Z,91258.80
2018-03-14T15:33:10.238Z,91260.38
2018-03-14T15:33:59.305Z,91255.35
2018-03-14T15:34:48.364Z,91258.57
2018-03-14T15:35:37.426Z,91258.86
2018-03-14T15:36:26.539Z,91256.10
2018-03-14T15:37:15.600Z,91258.33
2018-03-14T15:38:04.693Z,91257.09
2018-03-14T15:38:53.813Z,91260.55
2018-03-14T15:39:42.897Z,91259.72
2018-03-14T15:40:31.958Z,91263.00
2018-03-14T15:41:21.013Z,91259.32
2018-03-14T15:42:10.101Z,91260.78
2018-03-14T15:42:59.159Z,91265.23
2018-03-14T15:43:48.216Z,91261.08
2018-03-14T15:44:37.395Z,91260.79
2018-03-14T15:45:26.646Z,91266.51
2018-03-14T15:46:15.710Z,91269.67
2018-03-14T15:47:04.788Z,91262.53
2018-03-14T15:47:53.846Z,91264.69
2018-03-14T15:48:42.952Z,91262.47
2018-03-14T15:49:31.995Z,91262.06
2018-03-14T15:50:24.322Z,91254.75
2018-03-14T15:51:13.384Z,91255.76
2018-03-14T15:52:02.437Z,91257.38
2018-03-14T15:52:51.499Z,91260.77
2018-03-14T15:53:40.636Z,91263.86
2018-03-14T15:54:32.160Z,91264.22
2018-03-14T15:55:21.245Z,91259.55
2018-03-14T15:56:10.345Z,91264.05
2018-03-14T15:56:59.428Z,91260.54
2018-03-14T15:57:48.483Z,91267.73
2018-03-14T15:58:37.545Z,91270.83
2018-03-14T15:59:26.597Z,91268.66
2018-03-14T16:00:15.659Z,91269.14
2018-03-14T16:01:05.295Z,91265.44
2018-03-14T16:01:54.424Z,91271.59
2018-03-14T16:02:43.485Z,91274.93
2018-03-14T16:03:32.538Z,91270.81
2018-03-14T16:04:21.591Z,91271.11
2018-03-14T16:05:10.704Z,91271.11
2018-03-14T16:05:59.753Z,91270.33
2018-03-14T16:06:48.830Z,91269.73
2018-03-14T16:07:37.892Z,91275.52
2018-03-14T16:08:26.964Z,91262.66
2018-03-14T16:09:16.013Z,91272.64
2018-03-14T16:10:05.169Z,91271.78
2018-03-14T16:10:54.219Z,91269.61
2018-03-14T16:11:43.270Z,91270.25
2018-03-14T16:12:32.341Z,91275.56
2018-03-14T16:13:21.389Z,91267.79
2018-03-14T16:14:10.457Z,91274.09
2018-03-14T16:14:59.540Z,91277.41
2018-03-14T16:15:48.692Z,91270.62
2018-03-14T16:16:37.759Z,91272.03
2018-03-14T16:17:26.939Z,91279.47
2018-03-14T16:18:16.029Z,91279.18
2018-03-14T16:19:05.078Z,91283.40
2018-03-14T16:19:54.130Z,91281.14
2018-03-14T16:20:43.196Z,91280.60
2018-03-14T16:21:32.261Z,91278.30
2018-03-14T16:22:21.306Z,91278.36
2018-03-14T16:23:10.381Z,91281.81
2018-03-14T16:23:59.493Z,91285.68
2018-03-14T16:24:48.572Z,91286.61
2018-03-14T16:25:37.625Z,91283.55
2018-03-14T16:26:26.676Z,91289.07
2018-03-14T16:27:15.736Z,91283.28
2018-03-14T16:28:04.838Z,91287.02
2018-03-14T16:28:53.892Z,91285.39
2018-03-14T16:29:42.937Z,91289.30
2018-03-14T16:30:31.984Z,91280.77
2018-03-14T16:31:21.035Z,91288.20
2018-03-14T16:32:10.096Z,91285.84
2018-03-14T16:32:59.134Z,91286.59
2018-03-14T16:33:48.277Z,91285.61
2018-03-14T16:34:37.330Z,91286.47
2018-03-14T16:35:26.385Z,91287.69
2018-03-14T16:36:15.450Z,91292.70
2018-03-14T16:37:04.515Z,91290.52
2018-03-14T16:37:53.560Z,91294.48
2018-03-14T16:38:42.614Z,91297.67
2018-03-14T16:39:31.700Z,91295.47
2018-03-14T16:40:20.760Z,91295.25
2018-03-14T16:41:09.808Z,91295.44
2018-03-14T16:41:58.883Z,91292.47
2018-03-14T16:42:47.921Z,91294.86
2018-03-14T16:43:36.980Z,91286.55
2018-03-14T16:44:26.050Z,91296.76
2018-03-14T16:45:15.272Z,91292.00
2018-03-14T16:46:04.336Z,91306.06
2018-03-14T16:46:53.389Z,91297.66
2018-03-14T16:47:42.434Z,91299.23
2018-03-14T16:48:31.485Z,91297.55
2018-03-14T16:49:20.533Z,91299.30
2018-03-14T16:50:09.601Z,91308.15
2018-03-14T16:50:59.130Z,91309.42
2018-03-14T16:51:48.169Z,91303.06
2018-03-14T16:52:37.213Z,91302.66
2018-03-14T16:53:26.246Z,91309.30
2018-03-14T16:54:15.313Z,91307.25
2018-03-14T16:55:04.376Z,91307.76
2018-03-14T16:55:53.431Z,91309.76
2018-03-14T16:56:42.728Z,91311.65
2018-03-14T16:57:34.428Z,91305.93
2018-03-14T16:58:23.469Z,91305.63
2018-03-14T16:59:12.554Z,91314.68
2018-03-14T17:00:01.638Z,91306.73
2018-03-14T17:00:50.718Z,91306.52
2018-03-14T17:01:39.788Z,91307.95
2018-03-14T17:02:28.832Z,91311.49
2018-03-14T17:03:17.889Z,91312.59
2018-03-14T17:04:06.972Z,91316.80
2018-03-14T17:04:56.016Z,91317.52
2018-03-14T17:05:45.096Z,91315.98
2018-03-14T17:06:34.157Z,91324.03
2018-03-14T17:07:23.213Z,91315.55
2018-03-14T17:08:12.302Z,91318.23
2018-03-14T17:09:01.352Z,91318.67
2018-03-14T17:09:50.421Z,91319.81
2018-03-14T17:10:39.476Z,91323.05
2018-03-14T17:11:28.579Z,91320.86
2018-03-14T17:12:17.957Z,91323.50
2018-03-14T17:13:07.052Z,91324.23
2018-03-14T17:13:56.157Z,91327.33
2018-03-14T17:14:45.205Z,91328.80
2018-03-14T17:15:34.287Z,91328.67
2018-03-14T17:16:23.356Z,91329.17
2018-03-14T17:17:12.573Z,91329.75
2018-03-14T17:18:01.637Z,91333.39
2018-03-14T17:18:50.704Z,91332.34
2018-03-14T17:19:39.777Z,91336.42
2018-03-14T17:20:28.833Z,91335.95
2018-03-14T17:21:17.890Z,91331.80
2018-03-14T17:22:06.973Z,91330.01
2018-03-14T17:22:56.116Z,91341.44
2018-03-14T17:23:45.202Z,91343.06
2018-03-14T17:24:34.257Z,91339.53
2018-03-14T17:25:23.319Z,91342.45
2018-03-14T17:26:12.449Z,91337.17
2018-03-14T17:27:01.498Z,91337.55
2018-03-14T17:27:50.577Z,91334.98
2018-03-14T17:28:40.134Z,91340.35
2018-03-14T17:29:29.217Z,91336.77
2018-03-14T17:30:18.286Z,91338.24
2018-03-14T17:31:07.371Z,91338.38
2018-03-14T17:31:56.510Z,91340.37
2018-03-14T17:32:45.559Z,91339.38
2018-03-14T17:33:34.632Z,91345.88
2018-03-14T17:34:23.684Z,91333.40
2018-03-14T17:35:12.734Z,91339.34
2018-03-14T17:36:01.807Z,91343.16
2018-03-14T17:36:50.853Z,91338.71
2018-03-14T17:37:39.905Z,91340.19
2018-03-14T17:38:29.023Z,91340.17
2018-03-14T17:39:18.176Z,91338.84
2018-03-14T17:40:07.233Z,91341.87
2018-03-14T17:40:56.326Z,91339.31
2018-03-14T17:41:45.380Z,91349.26
2018-03-14T17:42:34.463Z,91349.19
2018-03-14T17:43:23.587Z,91348.41
2018-03-14T17:44:12.636Z,91340.16
2018-03-14T17:45:01.698Z,91349.53
2018-03-14T17:45:51.005Z,91346.36
2018-03-14T17:46:40.039Z,91348.54
2018-03-14T17:47:29.084Z,91346.92
2018-03-14T17:48:18.142Z,91349.88
2018-03-14T17:49:07.201Z,91341.92
2018-03-14T17:49:56.266Z,91349.89
2018-03-14T17:50:45.307Z,91346.86
2018-03-14T17:51:34.488Z,91348.83
2018-03-14T17:52:23.570Z,91349.68
2018-03-14T17:53:12.631Z,91346.72
2018-03-14T17:54:01.682Z,91353.13
2018-03-14T17:54:50.742Z,91347.28
2018-03-14T17:55:39.802Z,91347.14
2018-03-14T17:56:28.886Z,91349.47
2018-03-14T17:57:17.980Z,91348.48
2018-03-14T17:58:07.033Z,91352.84
2018-03-14T17:58:56.086Z,91355.24
2018-03-14T17:59:45.138Z,91347.20
2018-03-14T18:00:34.199Z,91343.13
2018-03-14T18:01:23.263Z,91343.89
2018-03-14T18:02:12.314Z,91350.17
2018-03-14T18:03:01.732Z,91350.02
2018-03-14T18:03:50.784Z,91351.02
2018-03-14T18:04:39.827Z,91350.73
2018-03-14T18:05:28.969Z,91350.17
2018-03-14T18:06:18.052Z,91344.53
2018-03-14T18:07:07.131Z,91347.92
2018-03-14T18:07:56.190Z,91350.59
2018-03-14T18:08:45.331Z,91353.84
2018-03-14T18:09:34.400Z,91352.71
2018-03-14T18:10:23.466Z,91358.98
2018-03-14T18:11:12.574Z,91355.46
2018-03-14T18:12:01.636Z,91359.69
2018-03-14T18:12:50.683Z,91357.58
2018-03-14T18:13:39.741Z,91353.20
2018-03-14T18:14:28.818Z,91350.73
2018-03-14T18:15:17.865Z,91357.44